createdAt,value
2023-02-14T00:01:23.603Z,-2.88
2023-02-14T00:03:51.080Z,-2.69
2023-02-14T00:06:18.663Z,-2.51
2023-02-14T00:08:46.248Z,-2.45
2023-02-14T00:11:15.471Z,-2.32
2023-02-14T00:14:06.091Z,-2.15
2023-02-14T00:16:33.739Z,-2.26
2023-02-14T00:19:04.034Z,-2.18
2023-02-14T00:21:33.535Z,-2.12
2023-02-14T00:24:01.076Z,-2.04
2023-02-14T00:26:28.621Z,-2.16
2023-02-14T00:28:56.141Z,-2.24
2023-02-14T00:31:24.655Z,-2.13
2023-02-14T00:33:52.313Z,-2.19
2023-02-14T00:36:22.015Z,-2.20
2023-02-14T00:38:50.866Z,-2.18
2023-02-14T00:41:21.037Z,-2.17
2023-02-14T00:43:53.835Z,-2.22
2023-02-14T00:46:24.018Z,-2.52
2023-02-14T00:48:52.582Z,-2.41
2023-02-14T00:51:21.192Z,-2.64
2023-02-14T00:53:51.849Z,-3.03
2023-02-14T00:56:20.843Z,-3.11
2023-02-14T00:58:48.863Z,-3.29
2023-02-14T01:01:19.638Z,-3.36
2023-02-14T01:03:47.969Z,-3.28
2023-02-14T01:06:15.621Z,-3.20
2023-02-14T01:08:43.484Z,-3.42
2023-02-14T01:11:13.890Z,-3.44
2023-02-14T01:13:41.976Z,-3.42
2023-02-14T01:16:12.879Z,-3.44
2023-02-14T01:18:41.668Z,-3.40
2023-02-14T01:21:30.853Z,-3.32
2023-02-14T01:24:02.398Z,-3.23
2023-02-14T01:26:31.006Z,-3.26
2023-02-14T01:29:02.128Z,-3.46
2023-02-14T01:31:32.902Z,-3.39
2023-02-14T01:34:00.806Z,-3.28
2023-02-14T01:36:38.794Z,-3.12
2023-02-14T01:39:14.071Z,-3.32
2023-02-14T01:41:44.677Z,-3.33
2023-02-14T01:44:14.979Z,-3.14
2023-02-14T01:46:44.834Z,-3.65
2023-02-14T01:49:15.127Z,-3.26
2023-02-14T01:51:49.348Z,-3.02
2023-02-14T01:54:18.547Z,-2.74
2023-02-14T01:56:54.209Z,-2.57
2023-02-14T01:59:27.512Z,-2.41
2023-02-14T02:01:58.720Z,-2.66
2023-02-14T02:04:35.330Z,-2.54
2023-02-14T02:07:08.341Z,-2.62
2023-02-14T02:10:08.648Z,-2.92
2023-02-14T02:12:38.492Z,-2.98
2023-02-14T02:15:07.663Z,-3.02
2023-02-14T02:17:56.930Z,-2.90
2023-02-14T02:20:42.568Z,-2.70
2023-02-14T02:23:21.692Z,-2.80
2023-02-14T02:25:54.549Z,-2.71
2023-02-14T02:28:49.254Z,-2.65
2023-02-14T02:31:28.562Z,-2.58
2023-02-14T02:34:53.949Z,-2.49
2023-02-14T02:37:36.573Z,-2.59
2023-02-14T02:40:25.694Z,-2.70
2023-02-14T02:43:08.108Z,-2.97
2023-02-14T02:46:16.683Z,-3.01
2023-02-14T02:48:53.869Z,-2.99
2023-02-14T02:52:12.157Z,-2.91
2023-02-14T02:54:55.069Z,-3.12
2023-02-14T02:57:39.676Z,-3.12
2023-02-14T03:00:12.765Z,-3.25
2023-02-14T03:03:14.357Z,-2.86
2023-02-14T03:05:43.188Z,-2.92
2023-02-14T03:08:10.908Z,-3.11
2023-02-14T03:10:40.127Z,-3.04
2023-02-14T03:13:26.892Z,-3.08
2023-02-14T03:16:12.793Z,-2.87
2023-02-14T03:19:06.306Z,-2.98
2023-02-14T03:22:08.997Z,-3.00
2023-02-14T03:25:04.405Z,-3.04
2023-02-14T03:27:59.360Z,-2.98
2023-02-14T03:30:48.756Z,-3.00
2023-02-14T03:33:48.078Z,-2.90
2023-02-14T03:36:26.858Z,-2.90
2023-02-14T03:39:06.043Z,-2.89
2023-02-14T03:41:42.334Z,-2.90
2023-02-14T03:44:11.728Z,-2.98
2023-02-14T03:47:10.198Z,-2.92
2023-02-14T03:49:44.008Z,-2.98
2023-02-14T03:52:13.308Z,-2.86
2023-02-14T03:54:42.324Z,-2.84
2023-02-14T03:57:20.335Z,-2.72
2023-02-14T03:59:49.188Z,-2.61
2023-02-14T04:02:40.322Z,-2.75
2023-02-14T04:05:17.465Z,-2.94
2023-02-14T04:07:48.444Z,-2.68
2023-02-14T04:10:17.104Z,-2.75
2023-02-14T04:12:44.895Z,-3.03
2023-02-14T04:15:13.368Z,-3.21
2023-02-14T04:17:59.791Z,-3.17
2023-02-14T04:20:28.489Z,-3.20
2023-02-14T04:22:56.150Z,-3.13
2023-02-14T04:25:23.837Z,-3.24
2023-02-14T04:27:51.543Z,-3.29
2023-02-14T04:30:21.201Z,-3.14
2023-02-14T04:32:49.837Z,-2.90
2023-02-14T04:35:17.666Z,-2.70
2023-02-14T04:37:45.938Z,-2.51
2023-02-14T04:40:17.468Z,-2.31
2023-02-14T04:42:46.561Z,-2.12
2023-02-14T04:45:14.509Z,-2.15
2023-02-14T04:47:42.174Z,-2.05
2023-02-14T04:50:10.062Z,-1.93
2023-02-14T04:52:37.697Z,-1.82
2023-02-14T04:55:06.052Z,-1.81
2023-02-14T04:57:33.646Z,-1.70
2023-02-14T05:00:01.485Z,-1.63
2023-02-14T05:02:32.598Z,-1.68
2023-02-14T05:05:00.156Z,-1.55
2023-02-14T05:07:27.802Z,-1.47
2023-02-14T05:09:55.402Z,-1.47
2023-02-14T05:12:23.012Z,-1.55
2023-02-14T05:14:50.677Z,-1.64
2023-02-14T05:17:18.195Z,-1.55
2023-02-14T05:19:45.896Z,-1.65
2023-02-14T05:22:13.499Z,-1.62
2023-02-14T05:24:41.058Z,-1.46
2023-02-14T05:27:08.576Z,-1.71
2023-02-14T05:29:36.123Z,-1.92
2023-02-14T05:32:04.217Z,-1.76
2023-02-14T05:34:31.856Z,-1.67
2023-02-14T05:36:59.360Z,-1.75
2023-02-14T05:39:26.903Z,-1.55
2023-02-14T05:41:54.489Z,-1.43
2023-02-14T05:44:22.354Z,-1.37
2023-02-14T05:46:50.261Z,-1.36
2023-02-14T05:49:17.835Z,-1.43
2023-02-14T05:51:45.387Z,-1.34
2023-02-14T05:54:12.935Z,-1.29
2023-02-14T05:56:40.547Z,-1.47
2023-02-14T05:59:08.078Z,-1.46
2023-02-14T06:01:35.611Z,-1.30
2023-02-14T06:04:03.637Z,-1.22
2023-02-14T06:06:31.183Z,-0.89
2023-02-14T06:08:58.928Z,-0.76
2023-02-14T06:11:26.476Z,-0.62
2023-02-14T06:13:53.968Z,-0.40
2023-02-14T06:16:21.552Z,-0.23
2023-02-14T06:18:48.995Z,-0.09
2023-02-14T06:21:16.541Z,0.12
2023-02-14T06:23:44.048Z,0.30
2023-02-14T06:26:11.541Z,0.56
2023-02-14T06:28:39.951Z,0.68
2023-02-14T06:31:07.525Z,0.80
2023-02-14T06:33:35.047Z,0.75
2023-02-14T06:36:02.831Z,0.78
2023-02-14T06:38:30.455Z,0.93
2023-02-14T06:41:06.664Z,1.02
2023-02-14T06:43:34.601Z,0.96
2023-02-14T06:46:02.413Z,1.08
2023-02-14T06:48:30.421Z,1.16
2023-02-14T06:50:58.303Z,1.23
2023-02-14T06:53:26.008Z,1.09
2023-02-14T06:55:53.840Z,0.87
2023-02-14T06:58:21.870Z,0.94
2023-02-14T07:00:49.465Z,1.10
2023-02-14T07:03:17.034Z,0.85
2023-02-14T07:05:45.518Z,0.64
2023-02-14T07:08:13.154Z,0.69
2023-02-14T07:10:40.999Z,0.61
2023-02-14T07:13:08.506Z,0.55
2023-02-14T07:15:36.267Z,0.48
2023-02-14T07:18:03.968Z,0.69
2023-02-14T07:20:31.636Z,0.71
2023-02-14T07:22:59.271Z,0.45
2023-02-14T07:25:28.591Z,0.39
2023-02-14T07:27:56.217Z,0.44
2023-02-14T07:30:23.953Z,0.45
2023-02-14T07:32:51.555Z,0.28
2023-02-14T07:35:19.156Z,0.53
2023-02-14T07:37:46.687Z,0.70
2023-02-14T07:40:15.261Z,0.83
2023-02-14T07:42:44.224Z,1.02
2023-02-14T07:45:21.182Z,1.12
2023-02-14T07:47:50.732Z,1.39
2023-02-14T07:50:18.720Z,1.59
2023-02-14T07:52:46.602Z,1.48
2023-02-14T07:55:14.677Z,1.25
2023-02-14T07:57:42.316Z,1.36
2023-02-14T08:00:10.421Z,1.46
2023-02-14T08:02:40.652Z,1.46
2023-02-14T08:05:08.450Z,1.30
2023-02-14T08:07:36.055Z,1.47
2023-02-14T08:10:03.821Z,1.53
2023-02-14T08:12:49.881Z,1.58
2023-02-14T08:15:46.415Z,1.67
2023-02-14T08:18:14.498Z,1.66
2023-02-14T08:20:42.248Z,1.80
2023-02-14T08:23:10.462Z,1.82
2023-02-14T08:25:38.244Z,2.00
2023-02-14T08:28:06.210Z,2.10
2023-02-14T08:30:36.291Z,2.14
2023-02-14T08:33:04.195Z,2.15
2023-02-14T08:35:31.733Z,2.20
2023-02-14T08:37:59.601Z,2.20
2023-02-14T08:40:27.467Z,2.40
2023-02-14T08:42:55.161Z,2.44
2023-02-14T08:45:22.882Z,2.34
2023-02-14T08:47:51.025Z,2.31
2023-02-14T08:50:19.427Z,2.44
2023-02-14T08:52:47.004Z,2.38
2023-02-14T08:55:14.902Z,2.23
2023-02-14T08:57:42.472Z,2.22
2023-02-14T09:00:10.719Z,2.09
2023-02-14T09:02:38.358Z,2.12
2023-02-14T09:05:08.329Z,2.19
2023-02-14T09:07:36.804Z,2.19
2023-02-14T09:10:04.757Z,2.20
2023-02-14T09:12:32.422Z,2.09
2023-02-14T09:14:59.914Z,2.11
2023-02-14T09:17:27.562Z,2.12
2023-02-14T09:19:55.195Z,2.22
2023-02-14T09:22:22.727Z,2.17
2023-02-14T09:24:50.267Z,2.16
2023-02-14T09:27:17.842Z,2.35
2023-02-14T09:29:45.399Z,2.26
2023-02-14T09:32:13.110Z,2.21
2023-02-14T09:34:58.895Z,2.13
2023-02-14T09:37:45.134Z,1.97
2023-02-14T09:40:20.517Z,2.13
2023-02-14T09:43:24.549Z,2.32
2023-02-14T09:45:57.058Z,2.41
2023-02-14T09:48:38.110Z,2.35
2023-02-14T09:51:15.646Z,2.26
2023-02-14T09:53:45.924Z,2.40
2023-02-14T09:56:37.336Z,2.45
2023-02-14T09:59:13.905Z,2.46
2023-02-14T10:01:54.856Z,2.48
2023-02-14T10:04:34.106Z,2.45
2023-02-14T10:07:10.594Z,2.36
2023-02-14T10:10:20.684Z,2.46
2023-02-14T10:12:57.239Z,2.43
2023-02-14T10:15:28.494Z,2.47
2023-02-14T10:18:25.572Z,2.63
2023-02-14T10:21:00.477Z,2.52
2023-02-14T10:23:33.933Z,2.54
2023-02-14T10:26:05.046Z,2.61
2023-02-14T10:28:46.515Z,2.45
2023-02-14T10:31:32.469Z,2.53
2023-02-14T10:34:29.143Z,2.59
2023-02-14T10:37:18.448Z,2.59
2023-02-14T10:40:20.459Z,2.25
2023-02-14T10:43:20.820Z,2.20
2023-02-14T10:45:59.531Z,2.14
2023-02-14T10:48:49.153Z,1.93
2023-02-14T10:51:33.940Z,2.12
2023-02-14T10:54:21.963Z,2.22
2023-02-14T10:57:00.901Z,2.19
2023-02-14T10:59:52.696Z,2.22
2023-02-14T11:02:25.307Z,2.06
2023-02-14T11:04:53.277Z,2.10
2023-02-14T11:07:22.134Z,2.09
2023-02-14T11:09:50.042Z,2.14
2023-02-14T11:12:39.916Z,2.29
2023-02-14T11:15:10.492Z,2.08
2023-02-14T11:17:38.330Z,2.03
2023-02-14T11:20:23.877Z,2.08
2023-02-14T11:22:51.718Z,1.93
2023-02-14T11:25:20.702Z,1.91
2023-02-14T11:27:51.390Z,1.91
2023-02-14T11:30:34.177Z,1.82
2023-02-14T11:33:03.395Z,1.76
2023-02-14T11:35:35.247Z,1.58
2023-02-14T11:38:06.680Z,1.52
2023-02-14T11:40:36.073Z,1.40
2023-02-14T11:43:14.790Z,1.43
2023-02-14T11:45:46.037Z,1.16
2023-02-14T11:48:55.731Z,1.34
2023-02-14T11:51:29.956Z,1.09
2023-02-14T11:54:05.000Z,0.77
2023-02-14T11:56:50.762Z,0.75
2023-02-14T11:59:29.634Z,0.75
2023-02-14T12:02:01.309Z,0.59
2023-02-14T12:04:46.077Z,0.84
2023-02-14T12:07:18.432Z,0.74
2023-02-14T12:09:48.445Z,0.65
2023-02-14T12:12:17.740Z,0.42
2023-02-14T12:14:45.515Z,0.37
2023-02-14T12:17:34.565Z,0.55
2023-02-14T12:20:11.745Z,0.08
2023-02-14T12:23:19.305Z,0.12
2023-02-14T12:26:06.809Z,-0.04
2023-02-14T12:28:48.100Z,-0.15
2023-02-14T12:31:17.453Z,-0.22
2023-02-14T12:33:46.871Z,-0.63
2023-02-14T12:36:18.423Z,-0.31
2023-02-14T12:39:02.199Z,-0.33
2023-02-14T12:42:00.527Z,-0.39
2023-02-14T12:44:49.452Z,-0.54
2023-02-14T12:47:40.961Z,-0.80
2023-02-14T12:50:19.642Z,-0.85
2023-02-14T12:53:13.105Z,-1.01
2023-02-14T12:56:03.351Z,-0.94
2023-02-14T12:58:38.227Z,-1.35
2023-02-14T13:01:43.646Z,-1.09
2023-02-14T13:04:23.297Z,-1.53
2023-02-14T13:07:28.500Z,-1.17
2023-02-14T13:10:31.278Z,-1.35
2023-02-14T13:12:58.860Z,-1.51
2023-02-14T13:15:38.868Z,-1.48
2023-02-14T13:18:44.680Z,-1.36
2023-02-14T13:21:16.823Z,-1.57
2023-02-14T13:23:53.209Z,-1.86
2023-02-14T13:26:32.564Z,-1.97
2023-02-14T13:29:11.432Z,-1.69
2023-02-14T13:31:40.623Z,-1.77
2023-02-14T13:34:34.551Z,-1.76
2023-02-14T13:37:06.669Z,-1.86
2023-02-14T13:39:50.817Z,-2.43
2023-02-14T13:42:52.242Z,-2.51
2023-02-14T13:45:41.038Z,-2.51
2023-02-14T13:48:19.367Z,-2.69
2023-02-14T13:51:05.175Z,-2.70
2023-02-14T13:53:38.568Z,-2.73
2023-02-14T13:56:12.305Z,-2.68
2023-02-14T13:59:01.066Z,-2.62
2023-02-14T14:01:34.699Z,-2.78
2023-02-14T14:04:06.265Z,-2.79
2023-02-14T14:07:04.922Z,-2.97
2023-02-14T14:09:44.720Z,-3.04
2023-02-14T14:12:29.628Z,-3.07
2023-02-14T14:15:06.495Z,-3.20
2023-02-14T14:17:41.086Z,-3.17
2023-02-14T14:20:20.634Z,-3.37
2023-02-14T14:22:50.093Z,-3.56
2023-02-14T14:25:38.325Z,-3.64
2023-02-14T14:28:18.792Z,-4.01
2023-02-14T14:30:46.724Z,-4.28
2023-02-14T14:33:27.344Z,-4.47
2023-02-14T14:35:54.746Z,-4.51
2023-02-14T14:38:22.389Z,-4.33
2023-02-14T14:40:53.703Z,-4.37
2023-02-14T14:43:37.130Z,-4.32
2023-02-14T14:46:05.034Z,-4.17
2023-02-14T14:48:52.634Z,-4.52
2023-02-14T14:51:25.100Z,-4.49
2023-02-14T14:54:06.421Z,-4.18
2023-02-14T14:56:37.659Z,-4.43
2023-02-14T14:59:35.825Z,-4.27
2023-02-14T15:02:08.016Z,-4.24
2023-02-14T15:04:36.518Z,-4.47
2023-02-14T15:07:34.889Z,-4.43
2023-02-14T15:10:02.890Z,-4.81
2023-02-14T15:13:03.542Z,-4.85
2023-02-14T15:15:31.443Z,-5.00
2023-02-14T15:17:59.032Z,-4.77
2023-02-14T15:20:26.866Z,-5.00
2023-02-14T15:22:54.646Z,-4.80
2023-02-14T15:25:35.422Z,-4.89
2023-02-14T15:28:03.578Z,-4.83
2023-02-14T15:30:38.326Z,-4.87
2023-02-14T15:33:07.722Z,-4.77
2023-02-14T15:35:42.552Z,-4.96
2023-02-14T15:38:12.810Z,-4.72
2023-02-14T15:40:42.330Z,-4.65
2023-02-14T15:43:25.496Z,-5.10
2023-02-14T15:45:57.667Z,-4.84
2023-02-14T15:48:33.740Z,-4.93
2023-02-14T15:51:05.189Z,-5.04
2023-02-14T15:53:52.333Z,-5.06
2023-02-14T15:56:45.269Z,-4.97
2023-02-14T15:59:18.830Z,-4.95
2023-02-14T16:01:53.742Z,-5.26
2023-02-14T16:04:28.101Z,-5.02
2023-02-14T16:07:26.312Z,-5.00
2023-02-14T16:10:21.835Z,-5.31
2023-02-14T16:13:08.934Z,-5.46
2023-02-14T16:15:38.926Z,-5.60
2023-02-14T16:18:19.525Z,-5.33
2023-02-14T16:20:51.643Z,-5.20
2023-02-14T16:23:29.809Z,-5.74
2023-02-14T16:25:59.972Z,-5.87
2023-02-14T16:28:32.006Z,-5.91
2023-02-14T16:31:03.414Z,-6.18
2023-02-14T16:33:34.875Z,-5.91
2023-02-14T16:36:15.176Z,-5.70
2023-02-14T16:38:45.621Z,-5.82
2023-02-14T16:41:22.444Z,-6.32
2023-02-14T16:43:52.149Z,-6.36
2023-02-14T16:46:23.055Z,-6.14
2023-02-14T16:48:53.354Z,-6.37
2023-02-14T16:51:27.828Z,-6.45
2023-02-14T16:53:59.094Z,-6.15
2023-02-14T16:56:37.639Z,-6.03
2023-02-14T16:59:05.455Z,-6.00
2023-02-14T17:01:33.550Z,-6.15
2023-02-14T17:04:01.088Z,-6.37
2023-02-14T17:06:32.892Z,-6.28
2023-02-14T17:09:07.592Z,-6.43
2023-02-14T17:11:38.841Z,-6.49
2023-02-14T17:14:07.094Z,-6.55
2023-02-14T17:16:35.230Z,-6.76
2023-02-14T17:19:03.790Z,-6.74
2023-02-14T17:21:32.142Z,-7.01
2023-02-14T17:23:59.699Z,-6.95
2023-02-14T17:26:27.351Z,-6.86
2023-02-14T17:28:54.917Z,-6.65
2023-02-14T17:31:22.558Z,-6.69
2023-02-14T17:33:50.353Z,-6.48
2023-02-14T17:36:18.106Z,-6.50
2023-02-14T17:38:45.769Z,-6.56
2023-02-14T17:41:16.839Z,-6.75
2023-02-14T17:43:45.132Z,-6.77
2023-02-14T17:46:14.655Z,-6.94
2023-02-14T17:48:45.731Z,-6.89
2023-02-14T17:51:15.127Z,-6.64
2023-02-14T17:53:42.881Z,-7.10
2023-02-14T17:56:18.310Z,-7.04
2023-02-14T17:58:49.439Z,-7.08
2023-02-14T18:01:20.041Z,-7.21
2023-02-14T18:03:48.306Z,-7.12
2023-02-14T18:06:28.258Z,-7.20
2023-02-14T18:09:10.505Z,-7.09
2023-02-14T18:15:30.615Z,-6.92
2023-02-14T18:17:58.502Z,-7.25
2023-02-14T18:20:26.331Z,-6.98
2023-02-14T18:22:54.077Z,-6.96
2023-02-14T18:25:21.679Z,-7.12
2023-02-14T18:27:49.211Z,-7.15
2023-02-14T18:30:17.413Z,-7.12
2023-02-14T18:32:44.993Z,-7.15
2023-02-14T18:35:12.630Z,-7.11
2023-02-14T18:37:40.363Z,-7.26
2023-02-14T18:40:11.164Z,-7.17
2023-02-14T18:42:40.093Z,-7.13
2023-02-14T18:45:08.164Z,-7.31
2023-02-14T18:47:36.067Z,-7.13
2023-02-14T18:50:03.820Z,-7.18
2023-02-14T18:52:31.452Z,-7.31
2023-02-14T18:54:59.770Z,-7.22
2023-02-14T18:57:27.528Z,-7.22
2023-02-14T18:59:55.157Z,-7.36
2023-02-14T19:02:22.914Z,-7.30
2023-02-14T19:04:50.995Z,-7.16
2023-02-14T19:07:18.983Z,-7.35
2023-02-14T19:09:46.577Z,-7.37
2023-02-14T19:12:14.210Z,-7.41
2023-02-14T19:14:42.060Z,-7.44
2023-02-14T19:17:09.601Z,-7.89
2023-02-14T19:19:37.258Z,-7.71
2023-02-14T19:22:04.892Z,-7.84
2023-02-14T19:24:32.570Z,-7.67
2023-02-14T19:27:00.265Z,-7.83
2023-02-14T19:29:27.970Z,-8.12
2023-02-14T19:31:56.228Z,-7.93
2023-02-14T19:34:29.714Z,-7.72
2023-02-14T19:37:00.151Z,-7.86
2023-02-14T19:39:32.601Z,-7.95
2023-02-14T19:42:00.901Z,-8.10
2023-02-14T19:44:29.616Z,-7.95
2023-02-14T19:47:00.317Z,-8.46
2023-02-14T19:49:29.387Z,-8.46
2023-02-14T19:51:57.977Z,-8.16
2023-02-14T19:54:26.019Z,-8.06
2023-02-14T19:56:56.522Z,-8.37
2023-02-14T19:59:24.234Z,-8.13
2023-02-14T20:01:56.980Z,-8.11
2023-02-14T20:04:29.623Z,-7.88
2023-02-14T20:06:57.537Z,-7.82
2023-02-14T20:09:25.969Z,-7.89
2023-02-14T20:11:55.992Z,-7.84
2023-02-14T20:14:26.533Z,-8.15
2023-02-14T20:16:56.943Z,-8.34
2023-02-14T20:19:29.932Z,-8.22
2023-02-14T20:21:57.460Z,-8.02
2023-02-14T20:24:28.658Z,-8.00
2023-02-14T20:26:56.931Z,-8.32
2023-02-14T20:29:25.559Z,-8.51
2023-02-14T20:31:58.393Z,-8.57
2023-02-14T20:34:27.195Z,-8.57
2023-02-14T20:36:56.245Z,-8.80
2023-02-14T20:39:31.572Z,-8.80
2023-02-14T20:42:00.248Z,-8.61
2023-02-14T20:44:28.544Z,-8.52
2023-02-14T20:46:56.783Z,-8.89
2023-02-14T20:49:26.595Z,-8.76
2023-02-14T20:51:54.728Z,-8.84
2023-02-14T20:54:25.284Z,-8.59
2023-02-14T20:56:53.462Z,-9.21
2023-02-14T20:59:27.414Z,-9.43
2023-02-14T21:01:56.943Z,-9.05
2023-02-14T21:04:26.268Z,-9.51
2023-02-14T21:06:54.346Z,-9.37
2023-02-14T21:09:22.015Z,-9.15
2023-02-14T21:11:50.688Z,-9.14
2023-02-14T21:14:18.284Z,-9.21
2023-02-14T21:16:45.868Z,-9.39
2023-02-14T21:19:13.461Z,-9.15
2023-02-14T21:21:41.264Z,-9.20
2023-02-14T21:24:11.568Z,-9.15
2023-02-14T21:26:39.735Z,-9.59
2023-02-14T21:29:08.965Z,-9.81
2023-02-14T21:31:37.015Z,-9.65
2023-02-14T21:34:05.246Z,-9.74
2023-02-14T21:36:38.154Z,-9.65
2023-02-14T21:39:07.104Z,-9.72
2023-02-14T21:41:36.636Z,-9.66
2023-02-14T21:44:05.493Z,-9.58
2023-02-14T21:46:37.162Z,-9.62
2023-02-14T21:49:24.749Z,-9.66
2023-02-14T21:51:52.469Z,-9.48
2023-02-14T21:54:20.190Z,-9.29
2023-02-14T21:56:49.575Z,-9.09
2023-02-14T21:59:17.251Z,-9.24
2023-02-14T22:01:44.986Z,-9.24
2023-02-14T22:04:13.089Z,-9.29
2023-02-14T22:06:42.257Z,-9.34
2023-02-14T22:09:12.624Z,-9.22
2023-02-14T22:11:41.105Z,-9.32
2023-02-14T22:14:09.270Z,-9.19
2023-02-14T22:16:38.481Z,-9.18
2023-02-14T22:19:07.553Z,-9.09
2023-02-14T22:21:35.704Z,-9.09
2023-02-14T22:24:03.361Z,-9.21
2023-02-14T22:26:38.950Z,-9.11
2023-02-14T22:29:08.725Z,-9.04
2023-02-14T22:31:43.715Z,-8.94
2023-02-14T22:34:14.426Z,-8.81
2023-02-14T22:36:42.284Z,-9.02
2023-02-14T22:39:13.823Z,-8.84
2023-02-14T22:41:41.443Z,-9.00
2023-02-14T22:44:09.593Z,-9.06
2023-02-14T22:46:37.676Z,-9.35
2023-02-14T22:49:06.687Z,-8.99
2023-02-14T22:51:39.641Z,-9.05
2023-02-14T22:54:13.812Z,-9.04
2023-02-14T22:56:47.096Z,-9.34
2023-02-14T22:59:19.337Z,-9.19
2023-02-14T23:01:47.722Z,-9.22
2023-02-14T23:04:21.912Z,-9.21
2023-02-14T23:06:49.830Z,-9.26
2023-02-14T23:09:17.630Z,-9.29
2023-02-14T23:11:46.308Z,-9.21
2023-02-14T23:14:33.250Z,-9.31
2023-02-14T23:17:19.251Z,-9.16
2023-02-14T23:20:05.742Z,-9.49
2023-02-14T23:22:36.202Z,-9.44
2023-02-14T23:25:07.403Z,-9.26
2023-02-14T23:27:53.106Z,-9.53
2023-02-14T23:30:20.745Z,-9.57
2023-02-14T23:32:48.472Z,-9.47
2023-02-14T23:35:16.264Z,-9.57
2023-02-14T23:37:43.828Z,-9.66
2023-02-14T23:40:11.822Z,-9.65
2023-02-14T23:42:40.446Z,-9.38
2023-02-14T23:45:26.679Z,-9.50
2023-02-14T23:47:54.373Z,-9.42
2023-02-14T23:50:21.936Z,-9.55
2023-02-14T23:52:49.533Z,-9.37
2023-02-14T23:55:17.062Z,-9.65
2023-02-14T23:57:44.699Z,-9.50
